createdAt,value
2018-05-13T00:00:59.254Z,14.13
2018-05-13T00:03:26.806Z,14.43
2018-05-13T00:05:54.339Z,15.47
2018-05-13T00:08:21.901Z,16.23
2018-05-13T00:10:49.510Z,17.70
2018-05-13T00:13:17.020Z,16.23
2018-05-13T00:15:45.024Z,18.57
2018-05-13T00:18:12.557Z,17.67
2018-05-13T00:20:40.062Z,15.90
2018-05-13T00:23:08.355Z,15.63
2018-05-13T00:25:35.892Z,15.00
2018-05-13T00:28:03.442Z,18.77
2018-05-13T00:30:30.988Z,17.07
2018-05-13T00:32:58.637Z,18.37
2018-05-13T00:35:26.160Z,17.13
2018-05-13T00:37:54.429Z,18.27
2018-05-13T00:40:21.967Z,18.03
2018-05-13T00:42:49.477Z,17.13
2018-05-13T00:45:17.760Z,17.93
2018-05-13T00:47:45.294Z,18.93
2018-05-13T00:50:12.867Z,18.23
2018-05-13T00:52:40.442Z,17.87
2018-05-13T00:55:07.979Z,16.50
2018-05-13T00:57:36.351Z,16.53
2018-05-13T01:00:03.865Z,17.37
2018-05-13T01:02:31.397Z,17.37
2018-05-13T01:04:59.660Z,17.87
2018-05-13T01:07:28.752Z,17.67
2018-05-13T01:09:56.251Z,18.10
2018-05-13T01:12:23.789Z,17.43
2018-05-13T01:14:52.063Z,18.00
2018-05-13T01:17:19.599Z,18.50
2018-05-13T01:19:47.108Z,17.40
2018-05-13T01:22:14.642Z,17.27
2018-05-13T01:24:42.179Z,18.30
2018-05-13T01:27:09.690Z,17.63
2018-05-13T01:29:37.262Z,17.17
2018-05-13T01:32:04.780Z,18.23
2018-05-13T01:34:33.055Z,18.90
2018-05-13T01:37:00.582Z,19.63
2018-05-13T01:39:28.104Z,19.70
2018-05-13T01:41:55.615Z,20.30
2018-05-13T01:44:23.146Z,20.20
2018-05-13T01:46:50.683Z,21.13
2018-05-13T01:49:18.192Z,19.03
2018-05-13T01:51:45.734Z,19.43
2018-05-13T01:54:13.271Z,19.47
2018-05-13T01:56:40.794Z,19.00
2018-05-13T01:59:08.359Z,19.17
2018-05-13T02:01:36.641Z,18.97
2018-05-13T02:04:04.184Z,17.97
2018-05-13T02:06:32.479Z,19.57
2018-05-13T02:09:00.790Z,20.03
2018-05-13T02:11:28.332Z,19.23
2018-05-13T02:13:55.856Z,18.87
2018-05-13T02:16:23.401Z,19.03
2018-05-13T02:18:50.991Z,19.63
2018-05-13T02:21:18.515Z,18.80
2018-05-13T02:23:46.055Z,18.37
2018-05-13T02:26:13.553Z,20.00
2018-05-13T02:28:41.086Z,18.87
2018-05-13T02:31:08.591Z,19.20
2018-05-13T02:33:36.706Z,19.00
2018-05-13T02:36:04.239Z,20.00
2018-05-13T02:38:32.555Z,19.23
2018-05-13T02:41:00.087Z,19.20
2018-05-13T02:43:27.618Z,19.23
2018-05-13T02:45:55.121Z,20.00
2018-05-13T02:48:22.631Z,18.73
2018-05-13T02:50:50.174Z,20.57
2018-05-13T02:53:17.723Z,20.93
2018-05-13T02:55:45.230Z,21.33
2018-05-13T02:58:13.539Z,22.27
2018-05-13T03:00:41.046Z,23.27
2018-05-13T03:03:08.574Z,22.27
2018-05-13T03:05:36.099Z,23.23
2018-05-13T03:08:03.612Z,23.67
2018-05-13T03:10:31.130Z,20.83
2018-05-13T03:12:58.714Z,22.80
2018-05-13T03:15:26.246Z,22.57
2018-05-13T03:17:53.770Z,17.80
2018-05-13T03:20:21.339Z,21.27
2018-05-13T03:22:48.851Z,23.70
2018-05-13T03:25:16.349Z,25.47
2018-05-13T03:27:43.881Z,22.13
2018-05-13T03:30:11.401Z,27.20
2018-05-13T03:32:39.675Z,27.07
2018-05-13T03:35:07.227Z,30.30
2018-05-13T03:37:34.765Z,28.77
2018-05-13T03:40:02.292Z,25.23
2018-05-13T03:42:29.881Z,29.37
2018-05-13T03:44:57.377Z,23.13
2018-05-13T03:47:25.666Z,30.40
2018-05-13T03:49:53.967Z,32.33
2018-05-13T03:52:21.472Z,32.50
2018-05-13T03:54:48.978Z,29.43
2018-05-13T03:57:16.510Z,32.50
2018-05-13T03:59:45.277Z,35.07
2018-05-13T04:02:12.781Z,33.27
2018-05-13T04:04:40.290Z,34.37
2018-05-13T04:07:07.943Z,33.30
2018-05-13T04:09:47.342Z,33.43
2018-05-13T04:12:28.449Z,33.03
2018-05-13T04:15:07.762Z,33.67
2018-05-13T04:17:36.065Z,32.37
2018-05-13T04:20:03.603Z,30.80
2018-05-13T04:22:31.117Z,35.30
2018-05-13T04:24:58.695Z,34.80
2018-05-13T04:27:26.207Z,34.67
2018-05-13T04:29:53.730Z,29.70
2018-05-13T04:32:22.042Z,35.90
2018-05-13T04:34:49.557Z,31.13
2018-05-13T04:37:17.833Z,38.93
2018-05-13T04:39:46.147Z,38.90
2018-05-13T04:42:13.672Z,31.27
2018-05-13T04:44:42.002Z,35.90
2018-05-13T04:47:09.550Z,29.17
2018-05-13T04:49:37.058Z,39.53
2018-05-13T04:52:04.566Z,34.70
2018-05-13T04:54:32.095Z,38.90
2018-05-13T04:56:59.595Z,38.90
2018-05-13T04:59:27.090Z,35.33
2018-05-13T05:01:54.638Z,41.33
2018-05-13T05:04:22.770Z,40.53
2018-05-13T05:06:50.288Z,37.10
2018-05-13T05:09:17.835Z,45.20
2018-05-13T05:11:45.346Z,32.00
2018-05-13T05:14:12.906Z,29.60
2018-05-13T05:16:41.205Z,46.17
2018-05-13T05:19:09.306Z,36.30
2018-05-13T05:21:36.812Z,48.43
2018-05-13T05:24:04.346Z,44.90
2018-05-13T05:26:31.877Z,45.60
2018-05-13T05:28:59.448Z,36.57
2018-05-13T05:31:26.966Z,41.53
2018-05-13T05:33:54.490Z,42.40
2018-05-13T05:36:22.066Z,30.20
2018-05-13T05:38:49.610Z,47.67
2018-05-13T05:41:17.156Z,43.20
2018-05-13T05:43:44.725Z,48.00
2018-05-13T05:46:12.249Z,46.10
2018-05-13T05:48:39.749Z,46.60
2018-05-13T05:51:07.282Z,41.97
2018-05-13T05:53:34.799Z,46.27
2018-05-13T05:56:03.074Z,48.70
2018-05-13T05:58:30.635Z,49.33
2018-05-13T06:00:58.901Z,49.80
2018-05-13T06:03:27.181Z,45.50
2018-05-13T06:05:55.493Z,45.10
2018-05-13T06:08:23.065Z,48.40
2018-05-13T06:10:50.728Z,48.17
2018-05-13T06:13:18.259Z,49.13
2018-05-13T06:15:45.772Z,40.93
2018-05-13T06:18:13.319Z,36.53
2018-05-13T06:20:41.607Z,45.20
2018-05-13T06:23:09.141Z,44.10
2018-05-13T06:25:36.647Z,20.57
2018-05-13T06:28:04.156Z,38.77
2018-05-13T06:30:31.689Z,47.40
2018-05-13T06:32:59.740Z,46.83
2018-05-13T06:35:27.254Z,49.30
2018-05-13T06:37:54.794Z,48.80
2018-05-13T06:40:22.315Z,50.53
2018-05-13T06:42:49.992Z,44.20
2018-05-13T06:45:19.216Z,57.00
2018-05-13T06:47:46.747Z,58.00
2018-05-13T06:50:14.278Z,58.27
2018-05-13T06:52:41.827Z,58.83
2018-05-13T06:55:09.382Z,62.07
2018-05-13T06:57:36.890Z,59.00
2018-05-13T07:00:05.335Z,55.23
2018-05-13T07:02:33.439Z,51.80
2018-05-13T07:05:00.942Z,53.50
2018-05-13T07:07:29.487Z,41.63
2018-05-13T07:09:56.987Z,49.80
2018-05-13T07:12:25.260Z,42.50
2018-05-13T07:14:52.790Z,45.63
2018-05-13T07:17:20.356Z,46.50
2018-05-13T07:19:47.871Z,46.50
2018-05-13T07:22:15.421Z,43.50
2018-05-13T07:24:42.925Z,43.40
2018-05-13T07:27:10.470Z,37.57
2018-05-13T07:29:38.910Z,42.83
2018-05-13T07:32:06.389Z,40.67
2018-05-13T07:34:33.926Z,36.80
2018-05-13T07:37:01.431Z,40.97
2018-05-13T07:39:28.966Z,33.60
2018-05-13T07:41:56.563Z,29.63
2018-05-13T07:44:24.091Z,33.00
2018-05-13T07:46:51.611Z,37.03
2018-05-13T07:49:19.919Z,35.17
2018-05-13T07:51:47.422Z,22.40
2018-05-13T07:54:14.966Z,31.67
2018-05-13T07:56:42.521Z,30.53
2018-05-13T07:59:10.126Z,29.63
2018-05-13T08:01:38.419Z,31.90
2018-05-13T08:04:05.937Z,33.27
2018-05-13T08:06:33.446Z,25.17
2018-05-13T08:09:01.716Z,33.07
2018-05-13T08:11:30.010Z,31.67
2018-05-13T08:13:57.533Z,30.63
2018-05-13T08:16:25.036Z,34.17
2018-05-13T08:18:52.559Z,33.57
2018-05-13T08:21:20.861Z,31.53
2018-05-13T08:23:48.369Z,26.00
2018-05-13T08:26:15.939Z,26.67
2018-05-13T08:28:43.546Z,31.77
2018-05-13T08:31:11.064Z,30.60
2018-05-13T08:33:38.789Z,29.80
2018-05-13T08:36:06.324Z,31.17
2018-05-13T08:38:34.606Z,32.10
2018-05-13T08:41:02.190Z,28.43
2018-05-13T08:43:29.695Z,31.33
2018-05-13T08:45:57.207Z,31.50
2018-05-13T08:48:24.752Z,26.17
2018-05-13T08:50:53.047Z,28.73
2018-05-13T08:53:20.555Z,30.83
2018-05-13T08:55:48.120Z,30.27
2018-05-13T08:58:15.663Z,21.33
2018-05-13T09:00:43.171Z,21.00
2018-05-13T09:03:10.725Z,27.87
2018-05-13T09:05:38.287Z,28.03
2018-05-13T09:08:06.598Z,27.27
2018-05-13T09:10:34.150Z,23.30
2018-05-13T09:13:01.719Z,25.63
2018-05-13T09:15:29.377Z,22.70
2018-05-13T09:17:56.874Z,24.60
2018-05-13T09:20:24.835Z,24.97
2018-05-13T09:22:52.569Z,23.33
2018-05-13T09:25:20.080Z,25.77
2018-05-13T09:27:48.338Z,23.87
2018-05-13T09:30:15.850Z,24.97
2018-05-13T09:32:43.398Z,24.77
2018-05-13T09:35:11.671Z,23.30
2018-05-13T09:37:39.179Z,17.93
2018-05-13T09:40:07.104Z,23.03
2018-05-13T09:42:34.611Z,22.20
2018-05-13T09:45:02.122Z,23.37
2018-05-13T09:47:29.976Z,22.23
2018-05-13T09:49:57.484Z,25.37
2018-05-13T09:52:25.062Z,22.20
2018-05-13T09:54:52.950Z,20.33
2018-05-13T09:57:20.453Z,20.70
2018-05-13T09:59:47.994Z,23.90
2018-05-13T10:02:16.736Z,23.83
2018-05-13T10:04:44.255Z,19.27
2018-05-13T10:07:11.765Z,22.60
2018-05-13T10:09:39.462Z,23.33
2018-05-13T10:12:06.910Z,16.00
2018-05-13T10:14:34.467Z,21.67
2018-05-13T10:17:02.007Z,22.83
2018-05-13T10:19:29.568Z,21.57
2018-05-13T10:21:57.059Z,21.57
2018-05-13T10:24:24.602Z,16.83
2018-05-13T10:26:52.166Z,16.50
2018-05-13T10:29:19.702Z,21.57
2018-05-13T10:31:47.290Z,20.97
2018-05-13T10:34:14.803Z,16.90
2018-05-13T10:36:43.201Z,20.83
2018-05-13T10:39:10.759Z,22.00
2018-05-13T10:41:38.399Z,22.13
2018-05-13T10:44:06.200Z,21.30
2018-05-13T10:46:33.749Z,21.00
2018-05-13T10:49:01.260Z,21.23
2018-05-13T10:51:28.815Z,20.33
2018-05-13T10:53:56.458Z,22.63
2018-05-13T10:56:23.971Z,19.93
2018-05-13T10:58:51.485Z,21.37
2018-05-13T11:01:19.053Z,20.07
2018-05-13T11:03:46.561Z,22.13
2018-05-13T11:06:14.066Z,23.50
2018-05-13T11:08:41.710Z,22.57
2018-05-13T11:11:09.251Z,16.10
2018-05-13T11:13:36.817Z,23.33
2018-05-13T11:16:04.414Z,21.00
2018-05-13T11:18:31.960Z,24.27
2018-05-13T11:20:59.491Z,25.40
2018-05-13T11:23:27.062Z,21.07
2018-05-13T11:25:54.595Z,24.33
2018-05-13T11:28:22.877Z,25.20
2018-05-13T11:30:50.424Z,24.20
2018-05-13T11:33:17.987Z,23.10
2018-05-13T11:35:45.555Z,24.83
2018-05-13T11:38:13.886Z,25.30
2018-05-13T11:40:41.403Z,26.10
2018-05-13T11:43:08.939Z,26.10
2018-05-13T11:45:37.239Z,26.67
2018-05-13T11:48:04.744Z,24.40
2018-05-13T11:50:32.262Z,26.63
2018-05-13T11:52:59.828Z,27.53
2018-05-13T11:55:27.342Z,27.20
2018-05-13T11:57:54.891Z,28.40
2018-05-13T12:00:22.419Z,27.73
2018-05-13T12:02:49.981Z,28.57
2018-05-13T12:05:17.730Z,21.30
2018-05-13T12:07:45.265Z,26.47
2018-05-13T12:10:13.539Z,26.93
2018-05-13T12:12:41.173Z,26.87
2018-05-13T12:15:08.708Z,27.93
2018-05-13T12:17:36.226Z,29.73
2018-05-13T12:20:04.545Z,27.70
2018-05-13T12:22:32.069Z,28.70
2018-05-13T12:24:59.595Z,28.67
2018-05-13T12:27:27.130Z,29.03
2018-05-13T12:29:54.640Z,27.07
2018-05-13T12:32:22.180Z,27.20
2018-05-13T12:34:49.706Z,27.67
2018-05-13T12:37:17.220Z,29.67
2018-05-13T12:39:44.737Z,29.27
2018-05-13T12:42:12.286Z,28.60
2018-05-13T12:44:39.791Z,30.33
2018-05-13T12:47:07.307Z,28.53
2018-05-13T12:49:34.830Z,30.87
2018-05-13T12:52:02.355Z,30.27
2018-05-13T12:54:29.871Z,30.70
2018-05-13T12:56:57.393Z,26.90
2018-05-13T12:59:24.914Z,30.90
2018-05-13T13:01:52.439Z,33.10
2018-05-13T13:04:20.740Z,35.20
2018-05-13T13:06:48.335Z,34.43
2018-05-13T13:09:15.861Z,32.13
2018-05-13T13:11:43.439Z,34.77
2018-05-13T13:14:10.955Z,36.57
2018-05-13T13:16:39.254Z,34.63
2018-05-13T13:19:06.765Z,36.90
2018-05-13T13:21:34.287Z,37.10
2018-05-13T13:24:01.796Z,36.17
2018-05-13T13:26:29.306Z,38.60
2018-05-13T13:28:57.333Z,37.93
2018-05-13T13:31:24.836Z,41.07
2018-05-13T13:33:52.346Z,40.73
2018-05-13T13:36:19.904Z,41.90
2018-05-13T13:38:47.459Z,40.53
2018-05-13T13:41:14.981Z,37.97
2018-05-13T13:43:42.513Z,38.73
2018-05-13T13:46:10.798Z,36.27
2018-05-13T13:48:38.330Z,28.87
2018-05-13T13:51:05.899Z,39.60
2018-05-13T13:53:34.230Z,36.03
2018-05-13T13:56:01.768Z,32.17
2018-05-13T13:58:29.330Z,34.50
2018-05-13T14:00:56.846Z,19.67
2018-05-13T14:03:24.364Z,32.23
2018-05-13T14:05:51.950Z,27.87
2018-05-13T14:08:19.447Z,27.87
2018-05-13T14:10:47.795Z,24.10
2018-05-13T14:13:15.321Z,26.07
2018-05-13T14:15:42.850Z,31.37
2018-05-13T14:18:10.386Z,28.23
2018-05-13T14:20:37.973Z,31.67
2018-05-13T14:23:06.249Z,28.50
2018-05-13T14:25:34.534Z,30.17
2018-05-13T14:28:02.065Z,29.33
2018-05-13T14:30:29.617Z,29.63
2018-05-13T14:32:57.760Z,29.87
2018-05-13T14:35:25.287Z,29.53
2018-05-13T14:37:53.600Z,29.60
2018-05-13T14:40:21.118Z,30.33
2018-05-13T14:42:48.627Z,26.67
2018-05-13T14:45:16.193Z,28.40
2018-05-13T14:47:44.148Z,25.10
2018-05-13T14:50:11.680Z,23.50
2018-05-13T14:52:39.974Z,27.20
2018-05-13T14:55:07.512Z,28.50
2018-05-13T14:57:35.802Z,26.33
2018-05-13T15:00:03.358Z,26.13
2018-05-13T15:02:31.633Z,28.07
2018-05-13T15:04:59.250Z,21.90
2018-05-13T15:07:31.669Z,25.30
2018-05-13T15:09:59.998Z,19.70
2018-05-13T15:12:27.532Z,20.67
2018-05-13T15:14:55.042Z,23.40
2018-05-13T15:17:22.686Z,18.30
2018-05-13T15:19:50.203Z,20.33
2018-05-13T15:22:17.757Z,18.77
2018-05-13T15:24:45.307Z,18.07
2018-05-13T15:27:13.642Z,17.17
2018-05-13T15:29:41.159Z,15.00
2018-05-13T15:32:09.463Z,16.13
2018-05-13T15:34:36.986Z,16.97
2018-05-13T15:37:05.319Z,16.77
2018-05-13T15:39:32.926Z,15.70
2018-05-13T15:42:01.279Z,15.33
2018-05-13T15:44:28.779Z,16.83
2018-05-13T15:46:57.095Z,15.23
2018-05-13T15:49:24.599Z,16.13
2018-05-13T15:51:52.306Z,16.80
2018-05-13T15:54:19.843Z,16.37
2018-05-13T15:56:47.371Z,13.20
2018-05-13T15:59:14.894Z,15.10
2018-05-13T16:01:42.455Z,16.40
2018-05-13T16:04:09.981Z,15.17
2018-05-13T16:06:37.604Z,13.27
2018-05-13T16:09:05.858Z,15.03
2018-05-13T16:11:33.374Z,12.23
2018-05-13T16:14:00.937Z,12.30
2018-05-13T16:16:29.234Z,14.47
2018-05-13T16:18:56.791Z,11.40
2018-05-13T16:21:25.065Z,16.10
2018-05-13T16:23:52.642Z,16.23
2018-05-13T16:26:20.147Z,11.47
2018-05-13T16:28:47.672Z,12.77
2018-05-13T16:31:15.237Z,12.30
2018-05-13T16:33:42.755Z,11.97
2018-05-13T16:36:11.344Z,13.33
2018-05-13T16:38:38.860Z,11.03
2018-05-13T16:41:06.356Z,13.03
2018-05-13T16:43:33.926Z,13.07
2018-05-13T16:46:02.190Z,10.80
2018-05-13T16:48:29.710Z,13.77
2018-05-13T16:50:57.254Z,14.60
2018-05-13T16:53:24.808Z,13.30
2018-05-13T16:55:52.324Z,11.70
2018-05-13T16:58:20.683Z,15.20
2018-05-13T17:00:48.199Z,15.10
2018-05-13T17:03:15.702Z,13.20
2018-05-13T17:05:43.247Z,15.70
2018-05-13T17:08:10.755Z,14.50
2018-05-13T17:10:38.266Z,14.63
2018-05-13T17:13:05.823Z,13.67
2018-05-13T17:15:33.655Z,15.43
2018-05-13T17:18:02.103Z,14.23
2018-05-13T17:20:30.215Z,13.17
2018-05-13T17:22:58.522Z,11.60
2018-05-13T17:25:26.051Z,12.83
2018-05-13T17:27:54.357Z,12.03
2018-05-13T17:30:21.938Z,13.40
2018-05-13T17:32:49.490Z,15.53
2018-05-13T17:35:17.143Z,12.57
2018-05-13T17:37:44.756Z,12.97
2018-05-13T17:40:12.176Z,9.83
2018-05-13T17:42:39.713Z,13.07
2018-05-13T17:45:07.346Z,14.40
2018-05-13T17:47:34.908Z,13.60
2018-05-13T17:50:02.538Z,14.03
2018-05-13T17:52:30.079Z,16.27
2018-05-13T17:54:57.588Z,15.60
2018-05-13T17:57:25.171Z,15.60
2018-05-13T17:59:52.715Z,15.10
2018-05-13T18:02:20.312Z,15.00
2018-05-13T18:04:47.874Z,15.63
2018-05-13T18:07:15.390Z,14.03
2018-05-13T18:09:43.686Z,14.87
2018-05-13T18:12:11.242Z,13.77
2018-05-13T18:14:39.554Z,13.83
2018-05-13T18:17:07.071Z,13.47
2018-05-13T18:19:35.358Z,11.07
2018-05-13T18:22:02.941Z,16.90
2018-05-13T18:24:30.546Z,17.80
2018-05-13T18:26:57.988Z,17.43
2018-05-13T18:29:25.547Z,20.40
2018-05-13T18:31:53.085Z,19.87
2018-05-13T18:34:20.594Z,20.10
2018-05-13T18:36:48.133Z,21.57
2018-05-13T18:39:15.703Z,17.00
2018-05-13T18:41:43.242Z,19.20
2018-05-13T18:44:10.771Z,19.23
2018-05-13T18:46:39.042Z,19.10
2018-05-13T18:49:07.317Z,19.83
2018-05-13T18:51:35.433Z,18.03
2018-05-13T18:54:02.960Z,20.20
2018-05-13T18:56:31.234Z,14.80
2018-05-13T18:58:58.839Z,19.30
2018-05-13T19:01:26.330Z,18.07
2018-05-13T19:03:53.829Z,21.53
2018-05-13T19:06:21.371Z,21.93
2018-05-13T19:08:49.657Z,21.03
2018-05-13T19:11:17.194Z,15.70
2018-05-13T19:13:45.265Z,16.13
2018-05-13T19:16:12.830Z,15.97
2018-05-13T19:18:40.397Z,20.23
2018-05-13T19:21:07.910Z,16.70
2018-05-13T19:23:35.426Z,18.47
2018-05-13T19:26:02.964Z,20.40
2018-05-13T19:28:30.485Z,13.23
2018-05-13T19:30:58.033Z,16.47
2018-05-13T19:33:25.547Z,18.17
2018-05-13T19:35:53.117Z,21.10
2018-05-13T19:38:20.621Z,18.87
2018-05-13T19:40:48.130Z,17.80
2018-05-13T19:43:15.695Z,20.33
2018-05-13T19:45:44.003Z,13.67
2018-05-13T19:48:11.535Z,14.43
2018-05-13T19:50:39.061Z,18.07
2018-05-13T19:53:06.624Z,17.07
2018-05-13T19:55:34.242Z,18.90
2018-05-13T19:58:01.742Z,14.23
2018-05-13T20:00:29.273Z,19.03
2018-05-13T20:02:56.966Z,22.70
2018-05-13T20:05:24.407Z,21.83
2018-05-13T20:07:51.933Z,20.80
2018-05-13T20:10:20.211Z,19.00
2018-05-13T20:12:47.710Z,18.40
2018-05-13T20:15:15.265Z,21.53
2018-05-13T20:17:42.762Z,23.83
2018-05-13T20:20:10.294Z,19.37
2018-05-13T20:25:34.657Z,21.47
2018-05-13T20:28:02.210Z,18.83
2018-05-13T20:30:29.751Z,21.37
2018-05-13T20:32:57.287Z,23.80
2018-05-13T20:35:24.818Z,21.23
2018-05-13T20:37:52.358Z,23.23
2018-05-13T20:40:19.886Z,23.47
2018-05-13T20:42:47.550Z,23.77
2018-05-13T20:45:15.078Z,27.40
2018-05-13T20:47:42.599Z,26.90
2018-05-13T20:50:10.147Z,24.30
2018-05-13T20:52:37.736Z,24.73
2018-05-13T20:55:05.245Z,24.73
2018-05-13T20:57:32.788Z,24.37
2018-05-13T21:00:00.321Z,24.70
2018-05-13T21:02:27.851Z,24.33
2018-05-13T21:04:55.394Z,19.03
2018-05-13T21:07:23.071Z,24.47
2018-05-13T21:09:50.599Z,24.80
2018-05-13T21:12:18.162Z,31.40
2018-05-13T21:14:45.699Z,20.47
2018-05-13T21:17:13.201Z,25.57
2018-05-13T21:19:40.794Z,26.47
2018-05-13T21:22:09.223Z,24.33
2018-05-13T21:24:36.913Z,27.57
2018-05-13T21:27:04.354Z,24.83
2018-05-13T21:29:31.873Z,26.97
2018-05-13T21:32:00.161Z,28.03
2018-05-13T21:34:29.165Z,30.02
2018-05-13T21:36:56.674Z,27.30
2018-05-13T21:39:24.190Z,27.53
2018-05-13T21:41:51.727Z,27.50
2018-05-13T21:44:19.253Z,26.40
2018-05-13T21:46:46.764Z,25.73
2018-05-13T21:49:14.347Z,27.13
2018-05-13T21:51:41.849Z,24.70
2018-05-13T21:54:09.361Z,25.63
2018-05-13T21:56:36.900Z,19.10
2018-05-13T21:59:04.410Z,18.00
2018-05-13T22:01:31.928Z,25.33
2018-05-13T22:03:59.475Z,27.60
2018-05-13T22:06:27.016Z,28.10
2018-05-13T22:08:54.561Z,26.83
2018-05-13T22:11:22.108Z,28.20
2018-05-13T22:13:49.623Z,22.67
2018-05-13T22:16:17.136Z,25.70
2018-05-13T22:18:44.686Z,21.70
2018-05-13T22:21:12.191Z,25.87
2018-05-13T22:23:40.468Z,27.00
2018-05-13T22:26:08.002Z,23.77
2018-05-13T22:28:35.512Z,26.23
2018-05-13T22:31:03.055Z,26.60
2018-05-13T22:33:30.578Z,29.20
2018-05-13T22:35:58.099Z,25.47
2018-05-13T22:38:25.639Z,24.73
2018-05-13T22:40:53.158Z,26.20
2018-05-13T22:43:20.674Z,20.10
2018-05-13T22:45:48.245Z,26.33
2018-05-13T22:48:15.758Z,30.40
2018-05-13T22:50:44.035Z,31.57
2018-05-13T22:53:11.581Z,33.30
2018-05-13T22:55:39.093Z,30.50
2018-05-13T22:58:06.604Z,27.90
2018-05-13T23:00:34.142Z,29.50
2018-05-13T23:03:01.649Z,25.70
2018-05-13T23:05:29.955Z,28.07
2018-05-13T23:07:57.479Z,28.43
2018-05-13T23:10:25.827Z,26.40
2018-05-13T23:12:53.433Z,32.10
2018-05-13T23:15:20.963Z,29.10
2018-05-13T23:17:48.479Z,31.80
2018-05-13T23:20:15.983Z,30.43
2018-05-13T23:22:43.593Z,30.50
2018-05-13T23:25:11.097Z,27.47
2018-05-13T23:27:38.623Z,21.70
2018-05-13T23:30:06.191Z,31.00
2018-05-13T23:32:33.710Z,34.13
2018-05-13T23:35:02.382Z,29.73
2018-05-13T23:37:29.920Z,27.97
2018-05-13T23:39:57.423Z,34.90
2018-05-13T23:42:25.701Z,30.13
2018-05-13T23:44:53.238Z,37.83
2018-05-13T23:47:20.783Z,28.90
2018-05-13T23:49:48.318Z,28.33
2018-05-13T23:52:15.828Z,31.43
2018-05-13T23:54:44.101Z,35.17
2018-05-13T23:57:11.641Z,32.27
2018-05-13T23:59:39.183Z,29.90
